Página principal
METAR-TAF:

METAR-TAF

Aeroportos :

Aeroporto Internacional Heydar Aliyev

Baku, Azerbaijão

latitude: 40-27N, longitude: 050-04E, altura: -6 m

Observação actual do tempo

O boletim foi feito há 33 minutos, às 23:30 UTC
Vento 8 kt de nordeste
Temperatura 7°C
Humidade 70%
Pressão 1033 hPa
Visibilidade 10 km ou mais
Nuvens dispersasa uma altura de 2900 ft

METAR: UBBB 152330Z 04008KT 9999 SCT029 07/02 Q1033 R34/190068 R35/290062 NOSIG

Hora: 04:03 (00:03 UTC)

Previsão

O boletim foi feito há 57 minutos, às 23:06 UTC
Previsão válida de 16 às 00 UTC a 16 às 24 UTC
Vento 14 kt de nordeste
Visibilidade 10 km ou mais
Nuvens fragmentadasa uma altura de 2700 ft
Nuvens fragmentadasa uma altura de 10000 ft
Temporariamente
de 16 às 00 UTC a 16 às 06 UTC
chuva fraca
Temporariamente
de 16 às 06 UTC a 16 às 18 UTC
Vento 12 kt de este
chuva fraca

TAF: UBBB 152306Z 1600/1624 04014KT 9999 BKN027 BKN100 TX11/1610Z TN07/1600Z TEMPO 1600/1606 -RA TEMPO 1606/1618 08012KT -RA

Observações e previsões do tempo de mais de 4000 aeroportos (mensagens METAR e TAF).

As estações disponíveis são os pontos amarelos e vermelhos sobre o mapa.

Mova o rato sobre o mapa para ver o nome da estação.

Depois clique no ponto para visualizar as observações e previsões meteorológicas.

Para alterar o mapa : clique nos botões verdes com uma cruz preta para aumentar o zoom; no botão verde com uma pitada de zoom; ou nas setas verdes para mapas adjacentes.


METAR-TAF: